createdAt,value
2019-01-06T00:01:51.780Z,32.93
2019-01-06T00:04:40.042Z,27.07
2019-01-06T00:07:29.795Z,26.97
2019-01-06T00:10:18.082Z,27.23
2019-01-06T00:13:12.498Z,27.13
2019-01-06T00:15:59.818Z,29.10
2019-01-06T00:18:48.096Z,26.00
2019-01-06T00:21:51.782Z,33.83
2019-01-06T00:24:39.749Z,28.07
2019-01-06T00:27:26.790Z,26.63
2019-01-06T00:30:24.187Z,26.40
2019-01-06T00:33:27.613Z,22.60
2019-01-06T00:36:28.020Z,22.63
2019-01-06T00:39:16.347Z,25.60
2019-01-06T00:42:13.747Z,24.07
2019-01-06T00:45:10.967Z,21.97
2019-01-06T00:48:05.505Z,22.17
2019-01-06T00:51:12.322Z,20.87
2019-01-06T00:53:59.790Z,23.37
2019-01-06T00:56:46.947Z,27.93
2019-01-06T00:59:33.857Z,24.47
2019-01-06T01:02:20.095Z,24.93
2019-01-06T01:05:07.177Z,23.23
2019-01-06T01:08:01.289Z,24.33
2019-01-06T01:11:04.982Z,23.63
2019-01-06T01:13:56.068Z,24.63
2019-01-06T01:16:50.500Z,22.73
2019-01-06T01:19:38.765Z,24.97
2019-01-06T01:22:27.069Z,23.90
2019-01-06T01:25:30.800Z,25.67
2019-01-06T01:28:25.364Z,21.47
2019-01-06T01:31:19.958Z,25.40
2019-01-06T01:34:17.161Z,21.67
2019-01-06T01:37:04.346Z,20.27
2019-01-06T01:39:52.043Z,21.43
2019-01-06T01:42:39.369Z,19.13
2019-01-06T01:45:42.767Z,19.07
2019-01-06T01:48:33.536Z,10.10
2019-01-06T01:51:20.664Z,17.90
2019-01-06T01:54:24.113Z,15.33
2019-01-06T01:57:15.182Z,14.77
2019-01-06T02:00:15.249Z,17.63
2019-01-06T02:03:02.221Z,15.43
2019-01-06T02:05:49.529Z,14.90
2019-01-06T02:08:26.744Z,16.03
2019-01-06T02:11:18.087Z,16.90
2019-01-06T02:14:04.999Z,17.23
2019-01-06T02:16:51.925Z,18.87
2019-01-06T02:19:50.961Z,13.50
2019-01-06T02:22:54.600Z,16.33
2019-01-06T02:25:48.370Z,18.77
2019-01-06T02:28:39.690Z,16.83
2019-01-06T02:31:23.765Z,14.23
2019-01-06T02:34:18.323Z,14.47
2019-01-06T02:37:05.276Z,14.63
2019-01-06T02:40:08.904Z,14.20
2019-01-06T02:42:59.710Z,13.50
2019-01-06T02:45:51.113Z,15.23
2019-01-06T02:48:42.484Z,12.93
2019-01-06T02:51:37.744Z,16.17
2019-01-06T02:54:37.799Z,17.70
2019-01-06T02:57:25.097Z,14.87
2019-01-06T03:00:31.855Z,13.97
2019-01-06T03:03:18.785Z,18.17
2019-01-06T03:06:22.293Z,14.87
2019-01-06T03:09:09.334Z,16.63
2019-01-06T03:11:57.631Z,16.27
2019-01-06T03:14:38.885Z,19.40
2019-01-06T03:17:36.251Z,16.77
2019-01-06T03:20:23.654Z,16.03
2019-01-06T03:23:16.602Z,17.50
2019-01-06T03:26:03.719Z,18.93
2019-01-06T03:28:51.430Z,15.27
2019-01-06T03:31:39.731Z,20.03
2019-01-06T03:34:27.259Z,15.13
2019-01-06T03:37:14.182Z,19.93
2019-01-06T03:40:04.379Z,18.43
2019-01-06T03:42:51.594Z,18.97
2019-01-06T03:45:39.997Z,18.97
2019-01-06T03:48:27.259Z,18.20
2019-01-06T03:51:30.708Z,17.53
2019-01-06T03:54:17.227Z,18.27
2019-01-06T03:57:14.756Z,19.57
2019-01-06T04:00:06.205Z,15.90
2019-01-06T04:03:03.606Z,14.50
2019-01-06T04:06:03.987Z,16.93
2019-01-06T04:09:01.222Z,19.33
2019-01-06T04:11:55.381Z,16.27
2019-01-06T04:14:42.386Z,18.63
2019-01-06T04:17:39.513Z,16.63
2019-01-06T04:20:30.696Z,16.93
2019-01-06T04:23:21.045Z,16.77
2019-01-06T04:26:19.738Z,17.27
2019-01-06T04:29:20.147Z,16.40
2019-01-06T04:32:07.226Z,17.27
2019-01-06T04:34:58.257Z,16.67
2019-01-06T04:38:01.905Z,16.63
2019-01-06T04:40:57.864Z,19.67
2019-01-06T04:43:55.645Z,17.17
2019-01-06T04:46:42.584Z,18.70
2019-01-06T04:49:29.883Z,18.03
2019-01-06T04:52:17.169Z,19.23
2019-01-06T04:55:08.277Z,18.67
2019-01-06T04:57:55.100Z,18.87
2019-01-06T05:00:58.590Z,20.17
2019-01-06T05:03:45.476Z,19.47
2019-01-06T05:06:42.888Z,20.07
2019-01-06T05:09:31.157Z,18.40
2019-01-06T05:12:11.937Z,18.77
2019-01-06T05:15:15.510Z,19.97
2019-01-06T05:18:02.681Z,19.13
2019-01-06T05:20:49.733Z,19.03
2019-01-06T05:23:36.788Z,22.73
2019-01-06T05:26:26.647Z,20.33
2019-01-06T05:29:15.601Z,20.60
2019-01-06T05:32:02.482Z,19.13
2019-01-06T05:34:56.701Z,21.57
2019-01-06T05:37:44.994Z,21.00
2019-01-06T05:40:32.136Z,21.47
2019-01-06T05:43:19.369Z,23.03
2019-01-06T05:46:06.431Z,20.47
2019-01-06T05:48:57.781Z,23.60
2019-01-06T05:51:53.747Z,18.07
2019-01-06T05:54:34.368Z,21.50
2019-01-06T05:57:28.896Z,20.77
2019-01-06T06:00:32.359Z,23.50
2019-01-06T06:03:20.944Z,25.73
2019-01-06T06:06:18.297Z,24.17
2019-01-06T06:08:57.486Z,22.10
2019-01-06T06:11:54.962Z,21.50
2019-01-06T06:14:58.519Z,21.17
2019-01-06T06:17:42.956Z,22.00
2019-01-06T06:20:30.195Z,23.47
2019-01-06T06:23:17.079Z,25.80
2019-01-06T06:26:04.317Z,25.63
2019-01-06T06:29:11.008Z,21.23
2019-01-06T06:32:02.325Z,23.13
2019-01-06T06:34:55.544Z,18.47
2019-01-06T06:37:41.306Z,14.07
2019-01-06T06:40:30.112Z,6.13
2019-01-06T06:43:17.380Z,5.10
2019-01-06T06:46:05.650Z,2.90
2019-01-06T06:48:52.557Z,4.40
2019-01-06T06:51:39.759Z,5.23
2019-01-06T06:54:31.171Z,5.23
2019-01-06T06:57:52.924Z,6.33
2019-01-06T07:01:08.483Z,5.70
2019-01-06T07:03:56.998Z,5.27
2019-01-06T07:06:48.738Z,5.50
2019-01-06T07:09:30.109Z,5.40
2019-01-06T07:12:17.325Z,3.87
2019-01-06T07:15:04.333Z,7.50
2019-01-06T07:18:26.703Z,7.30
2019-01-06T07:21:27.246Z,4.60
2019-01-06T07:24:14.138Z,6.00
2019-01-06T07:27:01.665Z,4.20
2019-01-06T07:29:48.971Z,3.60
2019-01-06T07:32:36.011Z,7.50
2019-01-06T07:35:22.958Z,4.23
2019-01-06T07:38:12.126Z,3.77
2019-01-06T07:40:59.059Z,4.87
2019-01-06T07:43:45.976Z,5.23
2019-01-06T07:46:49.769Z,4.57
2019-01-06T07:49:47.033Z,3.20
2019-01-06T07:52:41.499Z,6.00
2019-01-06T07:55:35.865Z,4.37
2019-01-06T07:58:30.860Z,4.73
2019-01-06T08:01:28.374Z,2.63
2019-01-06T08:04:32.028Z,3.67
2019-01-06T08:07:23.477Z,3.73
2019-01-06T08:10:10.861Z,3.17
2019-01-06T08:13:08.472Z,4.23
2019-01-06T08:15:55.964Z,3.07
2019-01-06T08:18:46.987Z,3.77
2019-01-06T08:21:33.986Z,3.47
2019-01-06T08:24:34.431Z,4.93
2019-01-06T08:27:22.904Z,5.40
2019-01-06T08:30:11.195Z,5.07
2019-01-06T08:33:00.022Z,5.37
2019-01-06T08:35:51.082Z,5.67
2019-01-06T08:38:51.396Z,6.37
2019-01-06T08:41:38.638Z,5.17
2019-01-06T08:44:27.005Z,5.50
2019-01-06T08:47:15.655Z,3.70
2019-01-06T08:50:06.902Z,5.93
2019-01-06T08:52:48.080Z,5.50
2019-01-06T08:55:33.727Z,5.50
2019-01-06T08:58:27.721Z,6.03
2019-01-06T09:01:22.594Z,5.10
2019-01-06T09:04:13.700Z,5.40
2019-01-06T09:07:00.581Z,7.07
2019-01-06T09:09:54.446Z,9.50
2019-01-06T09:12:57.920Z,5.67
2019-01-06T09:15:45.171Z,6.83
2019-01-06T09:18:32.080Z,5.37
2019-01-06T09:21:15.870Z,4.30
2019-01-06T09:24:02.989Z,7.23
2019-01-06T09:26:51.255Z,6.73
2019-01-06T09:29:38.171Z,6.43
2019-01-06T09:32:25.372Z,4.97
2019-01-06T09:35:12.421Z,7.77
2019-01-06T09:37:58.613Z,8.03
2019-01-06T09:40:47.543Z,10.87
2019-01-06T09:43:41.880Z,9.10
2019-01-06T09:46:28.203Z,10.30
2019-01-06T09:49:15.441Z,11.70
2019-01-06T09:52:22.173Z,9.00
2019-01-06T09:55:22.176Z,11.10
2019-01-06T09:58:13.203Z,9.10
2019-01-06T10:01:01.476Z,7.07
2019-01-06T10:03:46.622Z,8.47
2019-01-06T10:06:50.081Z,9.80
2019-01-06T10:09:38.383Z,9.77
2019-01-06T10:12:32.592Z,9.97
2019-01-06T10:15:36.265Z,7.97
2019-01-06T10:18:30.336Z,8.10
2019-01-06T10:21:17.511Z,10.20
2019-01-06T10:24:05.768Z,6.93
2019-01-06T10:26:53.183Z,8.53
2019-01-06T10:29:40.231Z,9.00
2019-01-06T10:32:31.626Z,10.03
2019-01-06T10:35:22.801Z,10.30
2019-01-06T10:38:12.296Z,7.40
2019-01-06T10:40:50.138Z,12.20
2019-01-06T10:43:38.138Z,7.47
2019-01-06T10:46:35.357Z,6.50
2019-01-06T10:49:35.753Z,11.03
2019-01-06T10:52:42.354Z,7.57
2019-01-06T10:55:26.928Z,10.37
2019-01-06T10:58:15.237Z,7.97
2019-01-06T11:03:56.218Z,10.60
2019-01-06T11:06:43.455Z,9.63
2019-01-06T11:09:30.532Z,8.67
2019-01-06T11:12:28.196Z,9.90
2019-01-06T11:15:16.519Z,12.17
2019-01-06T11:18:04.806Z,10.87
2019-01-06T11:20:53.209Z,12.13
2019-01-06T11:23:40.205Z,11.23
2019-01-06T11:26:44.219Z,11.57
2019-01-06T11:29:32.509Z,8.23
2019-01-06T11:32:13.352Z,4.50
2019-01-06T11:35:16.619Z,9.27
2019-01-06T11:38:04.915Z,7.87
2019-01-06T11:41:07.909Z,9.00
2019-01-06T11:43:55.322Z,8.43
2019-01-06T11:46:38.330Z,9.97
2019-01-06T11:49:44.910Z,9.33
2019-01-06T11:52:38.868Z,10.90
2019-01-06T11:55:27.392Z,12.33
2019-01-06T11:58:25.026Z,12.10
2019-01-06T12:01:19.645Z,8.33
2019-01-06T12:04:06.746Z,11.33
2019-01-06T12:06:55.030Z,8.47
2019-01-06T12:10:01.656Z,7.20
2019-01-06T12:12:55.686Z,6.37
2019-01-06T12:15:50.211Z,8.07
2019-01-06T12:18:37.568Z,7.73
2019-01-06T12:21:33.746Z,7.70
2019-01-06T12:24:22.101Z,7.00
2019-01-06T12:27:07.184Z,12.50
2019-01-06T12:29:58.574Z,9.53
2019-01-06T12:32:58.953Z,9.13
2019-01-06T12:35:56.389Z,7.10
2019-01-06T12:38:43.607Z,10.07
2019-01-06T12:41:38.215Z,5.73
2019-01-06T12:44:29.764Z,6.63
2019-01-06T12:47:17.700Z,8.87
2019-01-06T12:50:00.572Z,9.63
2019-01-06T12:52:47.767Z,10.50
2019-01-06T12:55:38.919Z,7.07
2019-01-06T12:58:25.795Z,11.40
2019-01-06T13:01:12.673Z,10.83
2019-01-06T13:04:00.993Z,9.37
2019-01-06T13:07:01.682Z,11.93
2019-01-06T13:09:45.196Z,11.10
2019-01-06T13:12:33.444Z,8.13
2019-01-06T13:15:20.550Z,9.17
2019-01-06T13:18:08.455Z,9.40
2019-01-06T13:21:05.984Z,9.50
2019-01-06T13:24:09.632Z,10.10
2019-01-06T13:26:57.978Z,10.37
2019-01-06T13:29:58.539Z,12.27
2019-01-06T13:32:45.437Z,11.63
2019-01-06T13:35:39.809Z,15.13
2019-01-06T13:38:35.336Z,13.37
2019-01-06T13:41:39.007Z,12.43
2019-01-06T13:44:36.499Z,12.20
2019-01-06T13:47:36.809Z,11.70
2019-01-06T13:50:34.524Z,13.47
2019-01-06T13:53:25.599Z,10.30
2019-01-06T13:56:12.787Z,8.33
2019-01-06T13:59:01.095Z,10.30
2019-01-06T14:02:01.684Z,10.23
2019-01-06T14:04:54.327Z,13.67
2019-01-06T14:07:41.510Z,12.33
2019-01-06T14:10:32.801Z,10.93
2019-01-06T14:13:27.191Z,11.57
2019-01-06T14:16:21.567Z,9.53
2019-01-06T14:19:13.642Z,10.20
2019-01-06T14:22:20.398Z,10.13
2019-01-06T14:25:16.221Z,12.40
2019-01-06T14:28:03.237Z,11.43
2019-01-06T14:30:50.536Z,13.80
2019-01-06T14:33:47.942Z,8.03
2019-01-06T14:36:51.574Z,10.13
2019-01-06T14:39:39.852Z,10.47
2019-01-06T14:42:28.166Z,9.63
2019-01-06T14:45:28.462Z,11.40
2019-01-06T14:48:28.784Z,8.23
2019-01-06T14:51:20.164Z,7.70
2019-01-06T14:54:11.570Z,7.80
2019-01-06T14:57:05.759Z,10.40
2019-01-06T14:59:54.010Z,8.37
2019-01-06T15:02:41.402Z,9.63
2019-01-06T15:05:29.702Z,11.47
2019-01-06T15:08:16.665Z,9.03
2019-01-06T15:11:03.720Z,8.90
2019-01-06T15:13:41.787Z,10.00
2019-01-06T15:16:32.089Z,9.20
2019-01-06T15:19:15.052Z,9.93
2019-01-06T15:22:03.353Z,8.00
2019-01-06T15:25:00.944Z,8.63
2019-01-06T15:27:47.824Z,9.87
2019-01-06T15:30:34.989Z,8.40
2019-01-06T15:33:35.323Z,9.43
2019-01-06T15:36:26.700Z,9.67
2019-01-06T15:39:13.545Z,7.53
2019-01-06T15:42:01.820Z,9.20
2019-01-06T15:44:48.798Z,9.63
2019-01-06T15:47:39.887Z,7.47
2019-01-06T15:50:31.209Z,11.00
2019-01-06T15:53:28.589Z,12.00
2019-01-06T15:56:15.041Z,12.47
2019-01-06T15:59:09.136Z,13.60
2019-01-06T16:01:53.794Z,15.60
2019-01-06T16:04:41.155Z,15.43
2019-01-06T16:07:28.293Z,17.43
2019-01-06T16:10:15.380Z,17.50
2019-01-06T16:13:03.757Z,11.23
2019-01-06T16:15:50.947Z,11.93
2019-01-06T16:18:48.278Z,13.37
2019-01-06T16:21:38.343Z,14.50
2019-01-06T16:24:38.623Z,15.77
2019-01-06T16:27:25.786Z,10.03
2019-01-06T16:30:17.271Z,12.13
2019-01-06T16:33:05.932Z,13.27
2019-01-06T16:35:52.836Z,10.40
2019-01-06T16:38:56.495Z,10.23
2019-01-06T16:41:47.877Z,16.07
2019-01-06T16:44:43.457Z,15.70
2019-01-06T16:47:46.798Z,12.87
2019-01-06T16:50:38.735Z,12.80
2019-01-06T16:53:27.028Z,14.47
2019-01-06T16:56:21.378Z,11.07
2019-01-06T16:59:15.540Z,13.03
2019-01-06T17:02:02.467Z,10.83
2019-01-06T17:04:58.527Z,12.10
2019-01-06T17:07:44.203Z,12.20
2019-01-06T17:10:31.432Z,13.90
2019-01-06T17:13:37.119Z,10.60
2019-01-06T17:16:23.998Z,9.67
2019-01-06T17:19:19.166Z,10.77
2019-01-06T17:22:16.415Z,10.43
2019-01-06T17:25:03.487Z,8.87
2019-01-06T17:27:51.775Z,9.03
2019-01-06T17:30:58.486Z,10.73
2019-01-06T17:33:45.645Z,8.10
2019-01-06T17:36:43.066Z,10.50
2019-01-06T17:39:37.537Z,10.97
2019-01-06T17:42:37.744Z,9.17
2019-01-06T17:45:29.820Z,9.83
2019-01-06T17:48:18.142Z,9.37
2019-01-06T17:51:05.145Z,7.13
2019-01-06T17:53:54.104Z,12.93
2019-01-06T17:56:41.143Z,10.67
2019-01-06T17:59:26.549Z,8.30
2019-01-06T18:02:21.586Z,9.00
2019-01-06T18:05:08.759Z,9.30
2019-01-06T18:07:55.630Z,9.80
2019-01-06T18:10:56.017Z,10.17
2019-01-06T18:13:43.301Z,9.63
2019-01-06T18:16:31.219Z,8.53
2019-01-06T18:19:21.316Z,7.60
2019-01-06T18:22:09.641Z,8.90
2019-01-06T18:25:04.354Z,7.83
2019-01-06T18:28:04.869Z,6.50
2019-01-06T18:30:59.006Z,7.50
2019-01-06T18:33:40.998Z,8.80
2019-01-06T18:36:47.831Z,10.27
2019-01-06T18:39:51.222Z,9.63
2019-01-06T18:42:47.417Z,9.97
2019-01-06T18:45:47.869Z,6.47
2019-01-06T18:48:48.338Z,6.23
2019-01-06T18:51:40.656Z,7.97
2019-01-06T18:54:28.062Z,9.20
2019-01-06T18:57:15.327Z,10.13
2019-01-06T19:00:10.229Z,10.03
2019-01-06T19:03:07.567Z,11.97
2019-01-06T19:05:55.003Z,15.27
2019-01-06T19:08:54.131Z,9.27
2019-01-06T19:11:42.727Z,14.47
2019-01-06T19:14:37.358Z,11.27
2019-01-06T19:17:28.591Z,16.70
2019-01-06T19:20:28.851Z,13.20
2019-01-06T19:23:21.165Z,16.80
2019-01-06T19:26:12.261Z,14.00
2019-01-06T19:29:03.505Z,14.33
2019-01-06T19:31:50.508Z,10.13
2019-01-06T19:34:37.816Z,12.57
2019-01-06T19:37:25.668Z,12.97
2019-01-06T19:40:23.101Z,11.53
2019-01-06T19:43:30.074Z,11.80
2019-01-06T19:46:36.829Z,15.47
2019-01-06T19:49:40.047Z,9.93
2019-01-06T19:52:21.556Z,12.30
2019-01-06T19:55:07.867Z,12.37
2019-01-06T19:58:01.737Z,15.53
2019-01-06T20:01:05.684Z,11.97
2019-01-06T20:03:54.692Z,18.17
2019-01-06T20:06:54.466Z,12.57
2019-01-06T20:09:41.587Z,14.53
2019-01-06T20:12:48.302Z,18.80
2019-01-06T20:15:47.701Z,15.27
2019-01-06T20:18:36.016Z,10.30
2019-01-06T20:21:27.054Z,13.03
2019-01-06T20:24:23.176Z,9.63
2019-01-06T20:27:10.340Z,11.07
2019-01-06T20:30:14.031Z,9.37
2019-01-06T20:33:17.443Z,8.37
2019-01-06T20:36:09.291Z,7.67
2019-01-06T20:38:56.594Z,8.17
2019-01-06T20:41:58.521Z,5.00
2019-01-06T20:44:53.002Z,4.90
2019-01-06T20:47:41.355Z,6.87
2019-01-06T20:50:47.758Z,5.97
2019-01-06T20:53:44.916Z,7.30
2019-01-06T20:56:50.487Z,5.90
2019-01-06T20:59:50.973Z,4.27
2019-01-06T21:02:38.197Z,6.40
2019-01-06T21:05:28.305Z,8.93
2019-01-06T21:08:35.489Z,6.63
2019-01-06T21:11:33.083Z,5.73
2019-01-06T21:14:20.082Z,8.90
2019-01-06T21:17:08.107Z,6.87
2019-01-06T21:20:08.821Z,7.33
2019-01-06T21:22:59.031Z,4.40
2019-01-06T21:26:04.932Z,6.63
2019-01-06T21:28:52.148Z,12.47
2019-01-06T21:31:49.547Z,8.23
2019-01-06T21:34:40.823Z,6.13
2019-01-06T21:37:44.384Z,6.43
2019-01-06T21:40:32.642Z,5.77
2019-01-06T21:43:26.940Z,5.83
2019-01-06T21:46:27.407Z,6.73
2019-01-06T21:49:16.494Z,9.10
2019-01-06T21:52:06.167Z,6.70
2019-01-06T21:54:53.511Z,4.57
2019-01-06T21:57:47.549Z,6.30
2019-01-06T22:00:45.333Z,3.00
2019-01-06T22:03:45.798Z,5.00
2019-01-06T22:06:34.111Z,6.97
2019-01-06T22:09:34.611Z,4.80
2019-01-06T22:12:21.726Z,5.70
2019-01-06T22:15:08.589Z,5.70
2019-01-06T22:17:56.865Z,5.17
2019-01-06T22:20:44.064Z,6.93
2019-01-06T22:23:28.085Z,5.70
2019-01-06T22:26:16.360Z,4.67
2019-01-06T22:29:01.250Z,6.03
2019-01-06T22:31:48.193Z,6.03
2019-01-06T22:34:35.215Z,5.70
2019-01-06T22:37:23.489Z,5.70
2019-01-06T22:40:27.148Z,5.57
2019-01-06T22:43:14.300Z,5.67
2019-01-06T22:46:01.480Z,4.90
2019-01-06T22:48:48.469Z,6.40
2019-01-06T22:51:35.362Z,8.23
2019-01-06T22:54:29.540Z,5.63
2019-01-06T22:57:16.716Z,7.77
2019-01-06T23:00:07.732Z,5.10
2019-01-06T23:02:54.653Z,6.30
2019-01-06T23:05:42.941Z,4.23
2019-01-06T23:08:29.826Z,6.77
2019-01-06T23:11:30.127Z,5.37
2019-01-06T23:14:33.720Z,5.47
2019-01-06T23:17:16.079Z,5.57
2019-01-06T23:20:03.096Z,6.67
2019-01-06T23:23:03.730Z,6.67
2019-01-06T23:25:50.674Z,5.63
2019-01-06T23:28:42.178Z,7.57
2019-01-06T23:31:34.585Z,4.33
2019-01-06T23:34:31.028Z,5.07
2019-01-06T23:37:17.960Z,7.00
2019-01-06T23:40:15.668Z,5.67
2019-01-06T23:43:02.639Z,6.13
2019-01-06T23:45:51.488Z,7.27
2019-01-06T23:48:42.778Z,4.30
2019-01-06T23:51:43.151Z,5.37
2019-01-06T23:54:30.053Z,7.23
2019-01-06T23:57:10.357Z,4.93
